sensor_id;sensor_type;location;lat;lon;timestamp;P1;durP1;ratioP1;P2;durP2;ratioP2
41897;SDS011;27576;53.366;-1.498;2023-02-22T00:00:20;61.83;;;42.33;;
41897;SDS011;27576;53.366;-1.498;2023-02-22T00:02:51;57.08;;;38.45;;
41897;SDS011;27576;53.366;-1.498;2023-02-22T00:05:24;62.42;;;42.17;;
41897;SDS011;27576;53.366;-1.498;2023-02-22T00:07:55;58.22;;;40.00;;
41897;SDS011;27576;53.366;-1.498;2023-02-22T00:10:21;57.05;;;39.10;;
41897;SDS011;27576;53.366;-1.498;2023-02-22T00:12:48;53.75;;;36.53;;
41897;SDS011;27576;53.366;-1.498;2023-02-22T00:15:20;50.05;;;36.40;;
41897;SDS011;27576;53.366;-1.498;2023-02-22T00:17:47;56.13;;;39.13;;
41897;SDS011;27576;53.366;-1.498;2023-02-22T00:20:13;53.22;;;36.67;;
41897;SDS011;27576;53.366;-1.498;2023-02-22T00:22:44;46.58;;;33.75;;
41897;SDS011;27576;53.366;-1.498;2023-02-22T00:25:10;50.00;;;34.38;;
41897;SDS011;27576;53.366;-1.498;2023-02-22T00:27:36;52.35;;;36.72;;
41897;SDS011;27576;53.366;-1.498;2023-02-22T00:30:03;46.70;;;33.60;;
41897;SDS011;27576;53.366;-1.498;2023-02-22T00:32:30;49.67;;;34.42;;
41897;SDS011;27576;53.366;-1.498;2023-02-22T00:34:55;47.75;;;34.13;;
41897;SDS011;27576;53.366;-1.498;2023-02-22T00:37:21;50.50;;;35.72;;
41897;SDS011;27576;53.366;-1.498;2023-02-22T00:39:46;50.13;;;33.45;;
41897;SDS011;27576;53.366;-1.498;2023-02-22T00:42:13;45.28;;;33.50;;
41897;SDS011;27576;53.366;-1.498;2023-02-22T00:44:38;40.72;;;28.88;;
41897;SDS011;27576;53.366;-1.498;2023-02-22T00:47:04;39.80;;;28.35;;
41897;SDS011;27576;53.366;-1.498;2023-02-22T00:49:29;39.88;;;28.08;;
41897;SDS011;27576;53.366;-1.498;2023-02-22T00:51:55;35.00;;;26.13;;
41897;SDS011;27576;53.366;-1.498;2023-02-22T00:54:20;40.05;;;29.40;;
41897;SDS011;27576;53.366;-1.498;2023-02-22T00:56:45;43.03;;;30.30;;
41897;SDS011;27576;53.366;-1.498;2023-02-22T00:59:11;40.03;;;28.08;;
41897;SDS011;27576;53.366;-1.498;2023-02-22T01:01:36;31.63;;;23.58;;
41897;SDS011;27576;53.366;-1.498;2023-02-22T01:04:01;36.78;;;25.08;;
41897;SDS011;27576;53.366;-1.498;2023-02-22T01:06:27;37.35;;;26.38;;
41897;SDS011;27576;53.366;-1.498;2023-02-22T01:08:53;33.38;;;24.50;;
41897;SDS011;27576;53.366;-1.498;2023-02-22T01:11:18;33.28;;;24.88;;
41897;SDS011;27576;53.366;-1.498;2023-02-22T01:13:44;32.05;;;22.75;;
41897;SDS011;27576;53.366;-1.498;2023-02-22T01:16:09;29.83;;;22.00;;
41897;SDS011;27576;53.366;-1.498;2023-02-22T01:18:35;32.97;;;23.30;;
41897;SDS011;27576;53.366;-1.498;2023-02-22T01:21:04;33.90;;;23.55;;
41897;SDS011;27576;53.366;-1.498;2023-02-22T01:23:30;30.95;;;22.98;;
41897;SDS011;27576;53.366;-1.498;2023-02-22T01:25:55;33.42;;;21.13;;
41897;SDS011;27576;53.366;-1.498;2023-02-22T01:28:21;35.92;;;24.58;;
41897;SDS011;27576;53.366;-1.498;2023-02-22T01:30:47;31.10;;;22.70;;
41897;SDS011;27576;53.366;-1.498;2023-02-22T01:33:13;31.70;;;22.25;;
41897;SDS011;27576;53.366;-1.498;2023-02-22T01:35:39;34.65;;;25.20;;
41897;SDS011;27576;53.366;-1.498;2023-02-22T01:38:06;34.33;;;23.38;;
41897;SDS011;27576;53.366;-1.498;2023-02-22T01:40:40;30.77;;;22.33;;
41897;SDS011;27576;53.366;-1.498;2023-02-22T01:48:24;30.98;;;22.27;;
41897;SDS011;27576;53.366;-1.498;2023-02-22T01:51:02;37.17;;;24.05;;
41897;SDS011;27576;53.366;-1.498;2023-02-22T01:54:00;30.83;;;21.83;;
41897;SDS011;27576;53.366;-1.498;2023-02-22T01:56:31;32.60;;;21.90;;
41897;SDS011;27576;53.366;-1.498;2023-02-22T01:59:05;35.53;;;24.88;;
41897;SDS011;27576;53.366;-1.498;2023-02-22T02:01:37;37.47;;;25.40;;
41897;SDS011;27576;53.366;-1.498;2023-02-22T02:04:09;33.75;;;23.45;;
41897;SDS011;27576;53.366;-1.498;2023-02-22T02:06:36;31.88;;;21.98;;
41897;SDS011;27576;53.366;-1.498;2023-02-22T02:09:04;30.90;;;22.20;;
41897;SDS011;27576;53.366;-1.498;2023-02-22T02:11:54;30.52;;;20.70;;
41897;SDS011;27576;53.366;-1.498;2023-02-22T02:14:24;34.83;;;24.90;;
41897;SDS011;27576;53.366;-1.498;2023-02-22T02:16:50;34.72;;;23.25;;
41897;SDS011;27576;53.366;-1.498;2023-02-22T02:35:49;33.75;;;23.73;;
41897;SDS011;27576;53.366;-1.498;2023-02-22T02:39:00;31.17;;;23.00;;
41897;SDS011;27576;53.366;-1.498;2023-02-22T02:41:17;33.90;;;23.75;;
41897;SDS011;27576;53.366;-1.498;2023-02-22T02:47:16;32.33;;;22.38;;
41897;SDS011;27576;53.366;-1.498;2023-02-22T02:49:23;31.35;;;20.63;;
41897;SDS011;27576;53.366;-1.498;2023-02-22T02:51:54;27.92;;;20.80;;
41897;SDS011;27576;53.366;-1.498;2023-02-22T02:54:22;31.65;;;22.10;;
41897;SDS011;27576;53.366;-1.498;2023-02-22T02:56:49;30.77;;;20.58;;
41897;SDS011;27576;53.366;-1.498;2023-02-22T02:59:28;30.85;;;20.08;;
41897;SDS011;27576;53.366;-1.498;2023-02-22T03:05:28;25.58;;;17.48;;
41897;SDS011;27576;53.366;-1.498;2023-02-22T03:24:20;20.27;;;13.77;;
41897;SDS011;27576;53.366;-1.498;2023-02-22T03:26:58;15.85;;;12.90;;
41897;SDS011;27576;53.366;-1.498;2023-02-22T03:29:29;17.00;;;13.13;;
41897;SDS011;27576;53.366;-1.498;2023-02-22T03:32:00;16.70;;;11.93;;
41897;SDS011;27576;53.366;-1.498;2023-02-22T03:34:33;16.30;;;12.65;;
41897;SDS011;27576;53.366;-1.498;2023-02-22T03:37:06;17.25;;;12.45;;
41897;SDS011;27576;53.366;-1.498;2023-02-22T03:39:38;14.55;;;11.80;;
41897;SDS011;27576;53.366;-1.498;2023-02-22T03:42:07;18.58;;;13.02;;
41897;SDS011;27576;53.366;-1.498;2023-02-22T03:44:36;13.45;;;10.98;;
41897;SDS011;27576;53.366;-1.498;2023-02-22T03:47:05;13.82;;;11.18;;
41897;SDS011;27576;53.366;-1.498;2023-02-22T03:52:15;12.55;;;11.25;;
41897;SDS011;27576;53.366;-1.498;2023-02-22T03:54:41;14.60;;;10.35;;
41897;SDS011;27576;53.366;-1.498;2023-02-22T03:57:18;13.02;;;11.25;;
41897;SDS011;27576;53.366;-1.498;2023-02-22T03:59:49;16.05;;;11.70;;
41897;SDS011;27576;53.366;-1.498;2023-02-22T04:02:14;13.18;;;10.70;;
41897;SDS011;27576;53.366;-1.498;2023-02-22T04:04:43;13.93;;;11.30;;
41897;SDS011;27576;53.366;-1.498;2023-02-22T04:07:09;21.33;;;11.80;;
41897;SDS011;27576;53.366;-1.498;2023-02-22T04:09:34;11.60;;;10.20;;
41897;SDS011;27576;53.366;-1.498;2023-02-22T04:12:00;10.80;;;9.02;;
41897;SDS011;27576;53.366;-1.498;2023-02-22T04:14:25;10.57;;;9.30;;
41897;SDS011;27576;53.366;-1.498;2023-02-22T04:16:50;11.45;;;8.77;;
41897;SDS011;27576;53.366;-1.498;2023-02-22T04:19:16;12.02;;;10.02;;
41897;SDS011;27576;53.366;-1.498;2023-02-22T04:21:41;13.55;;;9.88;;
41897;SDS011;27576;53.366;-1.498;2023-02-22T04:24:06;13.13;;;9.30;;
41897;SDS011;27576;53.366;-1.498;2023-02-22T04:26:32;12.63;;;9.57;;
41897;SDS011;27576;53.366;-1.498;2023-02-22T04:28:57;12.23;;;9.57;;
41897;SDS011;27576;53.366;-1.498;2023-02-22T04:31:22;11.18;;;8.93;;
41897;SDS011;27576;53.366;-1.498;2023-02-22T04:33:48;10.40;;;8.32;;
41897;SDS011;27576;53.366;-1.498;2023-02-22T04:36:13;10.40;;;8.80;;
41897;SDS011;27576;53.366;-1.498;2023-02-22T04:38:40;11.93;;;9.60;;
41897;SDS011;27576;53.366;-1.498;2023-02-22T04:41:06;11.48;;;9.02;;
41897;SDS011;27576;53.366;-1.498;2023-02-22T04:43:31;14.30;;;9.68;;
41897;SDS011;27576;53.366;-1.498;2023-02-22T04:45:56;12.07;;;9.75;;
41897;SDS011;27576;53.366;-1.498;2023-02-22T04:48:22;11.05;;;8.82;;
41897;SDS011;27576;53.366;-1.498;2023-02-22T04:50:47;10.65;;;8.35;;
41897;SDS011;27576;53.366;-1.498;2023-02-22T04:53:12;9.43;;;7.85;;
41897;SDS011;27576;53.366;-1.498;2023-02-22T04:55:38;11.75;;;9.18;;
41897;SDS011;27576;53.366;-1.498;2023-02-22T04:58:03;16.02;;;9.18;;
41897;SDS011;27576;53.366;-1.498;2023-02-22T05:00:28;14.30;;;9.32;;
41897;SDS011;27576;53.366;-1.498;2023-02-22T05:02:54;12.60;;;9.60;;
41897;SDS011;27576;53.366;-1.498;2023-02-22T05:05:20;12.15;;;9.15;;
41897;SDS011;27576;53.366;-1.498;2023-02-22T05:07:47;13.30;;;8.85;;
41897;SDS011;27576;53.366;-1.498;2023-02-22T05:10:13;11.05;;;9.50;;
41897;SDS011;27576;53.366;-1.498;2023-02-22T05:12:39;12.15;;;9.30;;
41897;SDS011;27576;53.366;-1.498;2023-02-22T05:15:04;8.95;;;7.60;;
41897;SDS011;27576;53.366;-1.498;2023-02-22T05:17:31;9.25;;;7.97;;
41897;SDS011;27576;53.366;-1.498;2023-02-22T05:19:57;7.85;;;6.85;;
41897;SDS011;27576;53.366;-1.498;2023-02-22T05:22:23;8.98;;;6.72;;
41897;SDS011;27576;53.366;-1.498;2023-02-22T05:24:48;9.82;;;7.70;;
41897;SDS011;27576;53.366;-1.498;2023-02-22T05:27:16;8.52;;;6.82;;
41897;SDS011;27576;53.366;-1.498;2023-02-22T05:29:42;9.75;;;7.30;;
41897;SDS011;27576;53.366;-1.498;2023-02-22T05:32:07;8.90;;;6.57;;
41897;SDS011;27576;53.366;-1.498;2023-02-22T05:34:32;11.63;;;7.30;;
41897;SDS011;27576;53.366;-1.498;2023-02-22T05:36:58;8.10;;;7.28;;
41897;SDS011;27576;53.366;-1.498;2023-02-22T05:39:23;10.13;;;7.47;;
41897;SDS011;27576;53.366;-1.498;2023-02-22T05:41:48;9.63;;;8.07;;
41897;SDS011;27576;53.366;-1.498;2023-02-22T05:44:14;9.38;;;8.02;;
41897;SDS011;27576;53.366;-1.498;2023-02-22T05:46:39;9.15;;;7.22;;
41897;SDS011;27576;53.366;-1.498;2023-02-22T05:49:04;13.88;;;8.20;;
41897;SDS011;27576;53.366;-1.498;2023-02-22T05:51:30;12.30;;;7.82;;
41897;SDS011;27576;53.366;-1.498;2023-02-22T05:53:55;10.98;;;8.30;;
41897;SDS011;27576;53.366;-1.498;2023-02-22T05:56:22;9.27;;;8.30;;
41897;SDS011;27576;53.366;-1.498;2023-02-22T05:58:48;12.05;;;8.32;;
41897;SDS011;27576;53.366;-1.498;2023-02-22T06:01:14;10.27;;;8.23;;
41897;SDS011;27576;53.366;-1.498;2023-02-22T06:03:40;9.43;;;7.38;;
41897;SDS011;27576;53.366;-1.498;2023-02-22T06:06:05;9.40;;;7.65;;
41897;SDS011;27576;53.366;-1.498;2023-02-22T06:08:30;10.00;;;7.72;;
41897;SDS011;27576;53.366;-1.498;2023-02-22T06:10:56;9.55;;;8.30;;
41897;SDS011;27576;53.366;-1.498;2023-02-22T06:13:21;9.02;;;8.07;;
41897;SDS011;27576;53.366;-1.498;2023-02-22T06:15:46;9.95;;;7.43;;
41897;SDS011;27576;53.366;-1.498;2023-02-22T06:18:12;11.35;;;8.35;;
41897;SDS011;27576;53.366;-1.498;2023-02-22T06:20:37;10.45;;;8.82;;
41897;SDS011;27576;53.366;-1.498;2023-02-22T06:23:02;11.55;;;9.20;;
41897;SDS011;27576;53.366;-1.498;2023-02-22T06:25:28;11.95;;;8.95;;
41897;SDS011;27576;53.366;-1.498;2023-02-22T06:27:58;9.18;;;7.75;;
41897;SDS011;27576;53.366;-1.498;2023-02-22T06:30:25;9.63;;;7.50;;
41897;SDS011;27576;53.366;-1.498;2023-02-22T06:32:51;9.48;;;7.72;;
41897;SDS011;27576;53.366;-1.498;2023-02-22T06:35:17;9.52;;;8.18;;
41897;SDS011;27576;53.366;-1.498;2023-02-22T06:37:43;10.63;;;8.00;;
41897;SDS011;27576;53.366;-1.498;2023-02-22T06:40:09;10.57;;;8.02;;
41897;SDS011;27576;53.366;-1.498;2023-02-22T06:42:35;11.98;;;8.60;;
41897;SDS011;27576;53.366;-1.498;2023-02-22T06:45:01;9.35;;;8.30;;
41897;SDS011;27576;53.366;-1.498;2023-02-22T06:47:26;9.27;;;7.82;;
41897;SDS011;27576;53.366;-1.498;2023-02-22T06:49:52;9.88;;;7.45;;
41897;SDS011;27576;53.366;-1.498;2023-02-22T06:52:19;9.93;;;8.05;;
41897;SDS011;27576;53.366;-1.498;2023-02-22T06:54:45;10.80;;;8.63;;
41897;SDS011;27576;53.366;-1.498;2023-02-22T06:57:10;11.30;;;9.18;;
41897;SDS011;27576;53.366;-1.498;2023-02-22T06:59:35;12.02;;;8.05;;
41897;SDS011;27576;53.366;-1.498;2023-02-22T07:02:01;11.93;;;8.65;;
41897;SDS011;27576;53.366;-1.498;2023-02-22T07:04:27;12.20;;;9.13;;
41897;SDS011;27576;53.366;-1.498;2023-02-22T07:06:53;9.55;;;8.07;;
41897;SDS011;27576;53.366;-1.498;2023-02-22T07:09:18;10.50;;;8.52;;
41897;SDS011;27576;53.366;-1.498;2023-02-22T07:11:44;10.75;;;8.98;;
41897;SDS011;27576;53.366;-1.498;2023-02-22T07:14:09;13.82;;;10.48;;
41897;SDS011;27576;53.366;-1.498;2023-02-22T07:16:35;11.35;;;9.38;;
41897;SDS011;27576;53.366;-1.498;2023-02-22T07:19:00;15.23;;;10.57;;
41897;SDS011;27576;53.366;-1.498;2023-02-22T07:21:26;12.05;;;9.13;;
41897;SDS011;27576;53.366;-1.498;2023-02-22T07:23:53;12.32;;;10.00;;
41897;SDS011;27576;53.366;-1.498;2023-02-22T07:26:20;11.20;;;9.32;;
41897;SDS011;27576;53.366;-1.498;2023-02-22T07:28:46;11.60;;;9.38;;
41897;SDS011;27576;53.366;-1.498;2023-02-22T07:31:12;11.40;;;9.55;;
41897;SDS011;27576;53.366;-1.498;2023-02-22T07:33:38;13.45;;;9.70;;
41897;SDS011;27576;53.366;-1.498;2023-02-22T07:36:03;11.32;;;9.23;;
41897;SDS011;27576;53.366;-1.498;2023-02-22T07:38:30;14.45;;;10.00;;
41897;SDS011;27576;53.366;-1.498;2023-02-22T07:40:55;9.52;;;8.23;;
41897;SDS011;27576;53.366;-1.498;2023-02-22T07:43:22;10.85;;;9.13;;
41897;SDS011;27576;53.366;-1.498;2023-02-22T07:45:50;11.68;;;9.95;;
41897;SDS011;27576;53.366;-1.498;2023-02-22T07:48:17;11.45;;;8.48;;
41897;SDS011;27576;53.366;-1.498;2023-02-22T07:50:44;12.25;;;9.55;;
41897;SDS011;27576;53.366;-1.498;2023-02-22T07:53:15;11.10;;;9.55;;
41897;SDS011;27576;53.366;-1.498;2023-02-22T07:55:42;15.32;;;8.93;;
41897;SDS011;27576;53.366;-1.498;2023-02-22T07:58:08;11.85;;;9.38;;
41897;SDS011;27576;53.366;-1.498;2023-02-22T08:00:39;11.82;;;9.23;;
41897;SDS011;27576;53.366;-1.498;2023-02-22T08:03:05;11.32;;;9.27;;
41897;SDS011;27576;53.366;-1.498;2023-02-22T08:05:33;11.85;;;8.68;;
41897;SDS011;27576;53.366;-1.498;2023-02-22T08:08:00;12.98;;;9.68;;
41897;SDS011;27576;53.366;-1.498;2023-02-22T08:10:26;12.25;;;7.97;;
41897;SDS011;27576;53.366;-1.498;2023-02-22T08:12:52;11.65;;;8.30;;
41897;SDS011;27576;53.366;-1.498;2023-02-22T08:15:20;11.43;;;8.27;;
41897;SDS011;27576;53.366;-1.498;2023-02-22T08:17:48;8.85;;;7.95;;
41897;SDS011;27576;53.366;-1.498;2023-02-22T08:20:13;9.55;;;8.55;;
41897;SDS011;27576;53.366;-1.498;2023-02-22T08:22:41;11.05;;;8.60;;
41897;SDS011;27576;53.366;-1.498;2023-02-22T08:25:07;10.38;;;8.55;;
41897;SDS011;27576;53.366;-1.498;2023-02-22T08:27:33;11.43;;;9.38;;
41897;SDS011;27576;53.366;-1.498;2023-02-22T08:29:58;11.57;;;9.40;;
41897;SDS011;27576;53.366;-1.498;2023-02-22T08:32:24;12.20;;;9.95;;
41897;SDS011;27576;53.366;-1.498;2023-02-22T08:34:49;13.20;;;11.80;;
41897;SDS011;27576;53.366;-1.498;2023-02-22T08:37:15;13.63;;;10.70;;
41897;SDS011;27576;53.366;-1.498;2023-02-22T08:39:42;14.00;;;11.45;;
41897;SDS011;27576;53.366;-1.498;2023-02-22T08:42:07;12.63;;;11.30;;
41897;SDS011;27576;53.366;-1.498;2023-02-22T08:44:33;14.07;;;12.23;;
41897;SDS011;27576;53.366;-1.498;2023-02-22T08:46:59;13.32;;;11.95;;
41897;SDS011;27576;53.366;-1.498;2023-02-22T08:49:24;14.25;;;12.75;;
41897;SDS011;27576;53.366;-1.498;2023-02-22T08:51:50;13.38;;;11.75;;
41897;SDS011;27576;53.366;-1.498;2023-02-22T08:54:15;14.35;;;12.90;;
41897;SDS011;27576;53.366;-1.498;2023-02-22T08:56:42;13.20;;;11.80;;
41897;SDS011;27576;53.366;-1.498;2023-02-22T08:59:07;13.07;;;11.77;;
41897;SDS011;27576;53.366;-1.498;2023-02-22T09:01:33;12.30;;;10.10;;
41897;SDS011;27576;53.366;-1.498;2023-02-22T09:03:58;9.32;;;8.32;;
41897;SDS011;27576;53.366;-1.498;2023-02-22T09:06:24;7.95;;;7.03;;
41897;SDS011;27576;53.366;-1.498;2023-02-22T09:08:50;6.70;;;6.07;;
41897;SDS011;27576;53.366;-1.498;2023-02-22T09:11:15;7.57;;;6.50;;
41897;SDS011;27576;53.366;-1.498;2023-02-22T09:13:40;6.90;;;6.20;;
41897;SDS011;27576;53.366;-1.498;2023-02-22T09:16:06;6.28;;;5.50;;
41897;SDS011;27576;53.366;-1.498;2023-02-22T09:18:31;6.65;;;5.75;;
41897;SDS011;27576;53.366;-1.498;2023-02-22T09:20:56;7.72;;;5.88;;
41897;SDS011;27576;53.366;-1.498;2023-02-22T09:23:22;6.60;;;5.90;;
41897;SDS011;27576;53.366;-1.498;2023-02-22T09:25:47;5.57;;;5.07;;
41897;SDS011;27576;53.366;-1.498;2023-02-22T09:28:13;6.30;;;5.57;;
41897;SDS011;27576;53.366;-1.498;2023-02-22T09:30:39;6.93;;;4.47;;
41897;SDS011;27576;53.366;-1.498;2023-02-22T09:33:11;4.90;;;4.38;;
41897;SDS011;27576;53.366;-1.498;2023-02-22T09:35:39;5.05;;;4.53;;
41897;SDS011;27576;53.366;-1.498;2023-02-22T09:38:07;4.95;;;4.45;;
41897;SDS011;27576;53.366;-1.498;2023-02-22T09:40:34;5.70;;;5.10;;
41897;SDS011;27576;53.366;-1.498;2023-02-22T09:51:14;6.22;;;5.20;;
41897;SDS011;27576;53.366;-1.498;2023-02-22T09:53:44;6.10;;;5.50;;
41897;SDS011;27576;53.366;-1.498;2023-02-22T09:56:14;5.40;;;4.82;;
41897;SDS011;27576;53.366;-1.498;2023-02-22T09:58:45;5.47;;;4.68;;
41897;SDS011;27576;53.366;-1.498;2023-02-22T10:01:27;4.55;;;4.13;;
41897;SDS011;27576;53.366;-1.498;2023-02-22T10:06:24;4.47;;;3.22;;
41897;SDS011;27576;53.366;-1.498;2023-02-22T10:08:51;3.70;;;3.35;;
41897;SDS011;27576;53.366;-1.498;2023-02-22T10:11:27;3.60;;;3.10;;
41897;SDS011;27576;53.366;-1.498;2023-02-22T10:14:01;3.17;;;2.33;;
41897;SDS011;27576;53.366;-1.498;2023-02-22T10:16:49;1.75;;;1.65;;
41897;SDS011;27576;53.366;-1.498;2023-02-22T10:24:58;3.03;;;1.20;;
41897;SDS011;27576;53.366;-1.498;2023-02-22T10:27:33;1.23;;;1.10;;
41897;SDS011;27576;53.366;-1.498;2023-02-22T10:30:17;1.35;;;1.10;;
41897;SDS011;27576;53.366;-1.498;2023-02-22T10:33:02;1.52;;;1.00;;
41897;SDS011;27576;53.366;-1.498;2023-02-22T10:35:48;3.10;;;1.45;;
41897;SDS011;27576;53.366;-1.498;2023-02-22T10:40:57;0.90;;;0.80;;
41897;SDS011;27576;53.366;-1.498;2023-02-22T10:43:26;1.40;;;1.00;;
41897;SDS011;27576;53.366;-1.498;2023-02-22T10:45:52;0.80;;;0.80;;
41897;SDS011;27576;53.366;-1.498;2023-02-22T10:48:22;2.72;;;0.90;;
41897;SDS011;27576;53.366;-1.498;2023-02-22T10:50:58;0.93;;;0.90;;
41897;SDS011;27576;53.366;-1.498;2023-02-22T10:53:26;3.33;;;1.00;;
41897;SDS011;27576;53.366;-1.498;2023-02-22T10:59:05;1.23;;;0.90;;
41897;SDS011;27576;53.366;-1.498;2023-02-22T11:01:36;4.05;;;0.90;;
41897;SDS011;27576;53.366;-1.498;2023-02-22T11:06:35;1.75;;;0.80;;
41897;SDS011;27576;53.366;-1.498;2023-02-22T11:09:03;0.90;;;0.70;;
41897;SDS011;27576;53.366;-1.498;2023-02-22T11:11:34;3.28;;;1.10;;
41897;SDS011;27576;53.366;-1.498;2023-02-22T11:14:00;2.88;;;1.08;;
41897;SDS011;27576;53.366;-1.498;2023-02-22T11:16:37;1.67;;;0.80;;
41897;SDS011;27576;53.366;-1.498;2023-02-22T11:21:34;5.00;;;1.10;;
41897;SDS011;27576;53.366;-1.498;2023-02-22T11:24:01;1.55;;;0.75;;
41897;SDS011;27576;53.366;-1.498;2023-02-22T11:26:31;2.47;;;0.80;;
41897;SDS011;27576;53.366;-1.498;2023-02-22T11:29:24;1.50;;;0.85;;
41897;SDS011;27576;53.366;-1.498;2023-02-22T11:31:58;2.95;;;0.95;;
41897;SDS011;27576;53.366;-1.498;2023-02-22T11:34:29;2.75;;;0.85;;
41897;SDS011;27576;53.366;-1.498;2023-02-22T11:42:29;3.45;;;1.20;;
41897;SDS011;27576;53.366;-1.498;2023-02-22T11:47:33;3.65;;;1.00;;
41897;SDS011;27576;53.366;-1.498;2023-02-22T11:50:00;1.85;;;1.10;;
41897;SDS011;27576;53.366;-1.498;2023-02-22T11:52:28;3.85;;;1.38;;
41897;SDS011;27576;53.366;-1.498;2023-02-22T11:57:54;1.55;;;0.77;;
41897;SDS011;27576;53.366;-1.498;2023-02-22T12:08:58;3.35;;;1.08;;
41897;SDS011;27576;53.366;-1.498;2023-02-22T12:14:45;2.13;;;0.95;;
41897;SDS011;27576;53.366;-1.498;2023-02-22T12:17:32;4.95;;;1.00;;
41897;SDS011;27576;53.366;-1.498;2023-02-22T12:22:53;2.30;;;1.00;;
41897;SDS011;27576;53.366;-1.498;2023-02-22T12:25:30;1.60;;;1.38;;
41897;SDS011;27576;53.366;-1.498;2023-02-22T12:28:02;4.45;;;1.10;;
41897;SDS011;27576;53.366;-1.498;2023-02-22T12:30:41;3.40;;;1.05;;
41897;SDS011;27576;53.366;-1.498;2023-02-22T12:33:11;1.73;;;1.10;;
41897;SDS011;27576;53.366;-1.498;2023-02-22T12:35:43;2.78;;;1.42;;
41897;SDS011;27576;53.366;-1.498;2023-02-22T12:41:00;3.10;;;1.00;;
41897;SDS011;27576;53.366;-1.498;2023-02-22T12:46:20;2.22;;;1.20;;
41897;SDS011;27576;53.366;-1.498;2023-02-22T12:48:59;5.05;;;1.55;;
41897;SDS011;27576;53.366;-1.498;2023-02-22T13:16:51;2.83;;;1.25;;
41897;SDS011;27576;53.366;-1.498;2023-02-22T13:22:00;3.30;;;1.15;;
41897;SDS011;27576;53.366;-1.498;2023-02-22T13:27:39;5.32;;;1.27;;
41897;SDS011;27576;53.366;-1.498;2023-02-22T13:30:46;2.28;;;1.08;;
41897;SDS011;27576;53.366;-1.498;2023-02-22T13:51:55;1.10;;;0.80;;
41897;SDS011;27576;53.366;-1.498;2023-02-22T14:08:00;7.85;;;1.30;;
41897;SDS011;27576;53.366;-1.498;2023-02-22T14:13:17;1.15;;;0.70;;
41897;SDS011;27576;53.366;-1.498;2023-02-22T14:18:27;2.13;;;0.90;;
41897;SDS011;27576;53.366;-1.498;2023-02-22T14:21:13;3.00;;;1.20;;
41897;SDS011;27576;53.366;-1.498;2023-02-22T14:26:38;2.88;;;1.15;;
41897;SDS011;27576;53.366;-1.498;2023-02-22T14:39:32;2.22;;;0.90;;
41897;SDS011;27576;53.366;-1.498;2023-02-22T14:42:13;2.88;;;1.17;;
41897;SDS011;27576;53.366;-1.498;2023-02-22T14:50:31;2.55;;;1.10;;
41897;SDS011;27576;53.366;-1.498;2023-02-22T14:55:52;1.17;;;1.00;;
41897;SDS011;27576;53.366;-1.498;2023-02-22T14:58:33;0.80;;;0.77;;
41897;SDS011;27576;53.366;-1.498;2023-02-22T15:01:24;2.50;;;0.90;;
41897;SDS011;27576;53.366;-1.498;2023-02-22T15:03:50;1.00;;;0.80;;
41897;SDS011;27576;53.366;-1.498;2023-02-22T15:06:22;2.53;;;1.30;;
41897;SDS011;27576;53.366;-1.498;2023-02-22T15:11:47;2.35;;;1.40;;
41897;SDS011;27576;53.366;-1.498;2023-02-22T15:14:22;3.33;;;1.75;;
41897;SDS011;27576;53.366;-1.498;2023-02-22T15:16:52;4.63;;;2.15;;
41897;SDS011;27576;53.366;-1.498;2023-02-22T15:19:25;6.90;;;4.03;;
41897;SDS011;27576;53.366;-1.498;2023-02-22T15:21:53;8.55;;;4.75;;
41897;SDS011;27576;53.366;-1.498;2023-02-22T15:24:25;10.70;;;6.30;;
41897;SDS011;27576;53.366;-1.498;2023-02-22T15:27:07;7.38;;;5.68;;
41897;SDS011;27576;53.366;-1.498;2023-02-22T15:29:39;6.63;;;4.40;;
41897;SDS011;27576;53.366;-1.498;2023-02-22T15:35:04;3.55;;;2.47;;
41897;SDS011;27576;53.366;-1.498;2023-02-22T15:37:43;2.30;;;1.38;;
41897;SDS011;27576;53.366;-1.498;2023-02-22T15:40:17;2.00;;;1.60;;
41897;SDS011;27576;53.366;-1.498;2023-02-22T15:45:15;2.00;;;1.67;;
41897;SDS011;27576;53.366;-1.498;2023-02-22T15:47:43;2.78;;;1.60;;
41897;SDS011;27576;53.366;-1.498;2023-02-22T15:53:03;13.43;;;9.50;;
41897;SDS011;27576;53.366;-1.498;2023-02-22T15:55:42;17.27;;;11.50;;
41897;SDS011;27576;53.366;-1.498;2023-02-22T16:00:40;27.60;;;17.70;;
41897;SDS011;27576;53.366;-1.498;2023-02-22T16:03:11;25.98;;;16.90;;
41897;SDS011;27576;53.366;-1.498;2023-02-22T16:05:46;30.13;;;18.05;;
41897;SDS011;27576;53.366;-1.498;2023-02-22T16:13:50;20.75;;;13.93;;
41897;SDS011;27576;53.366;-1.498;2023-02-22T16:18:49;11.05;;;7.20;;
41897;SDS011;27576;53.366;-1.498;2023-02-22T16:21:16;4.97;;;3.53;;
41897;SDS011;27576;53.366;-1.498;2023-02-22T16:23:47;3.78;;;2.40;;
41897;SDS011;27576;53.366;-1.498;2023-02-22T16:26:27;5.78;;;2.13;;
41897;SDS011;27576;53.366;-1.498;2023-02-22T16:31:36;3.67;;;2.25;;
41897;SDS011;27576;53.366;-1.498;2023-02-22T16:34:04;3.00;;;2.42;;
41897;SDS011;27576;53.366;-1.498;2023-02-22T16:36:42;2.78;;;1.95;;
41897;SDS011;27576;53.366;-1.498;2023-02-22T16:39:19;2.60;;;2.40;;
41897;SDS011;27576;53.366;-1.498;2023-02-22T16:41:49;2.22;;;2.00;;
41897;SDS011;27576;53.366;-1.498;2023-02-22T16:44:15;1.90;;;1.70;;
41897;SDS011;27576;53.366;-1.498;2023-02-22T16:46:41;2.90;;;1.70;;
41897;SDS011;27576;53.366;-1.498;2023-02-22T16:49:10;3.63;;;1.77;;
41897;SDS011;27576;53.366;-1.498;2023-02-22T16:51:43;2.55;;;1.70;;
41897;SDS011;27576;53.366;-1.498;2023-02-22T16:54:12;2.38;;;1.80;;
41897;SDS011;27576;53.366;-1.498;2023-02-22T16:56:39;3.00;;;2.60;;
41897;SDS011;27576;53.366;-1.498;2023-02-22T16:59:10;3.92;;;2.60;;
41897;SDS011;27576;53.366;-1.498;2023-02-22T17:01:38;6.07;;;2.50;;
41897;SDS011;27576;53.366;-1.498;2023-02-22T17:04:14;2.42;;;2.22;;
41897;SDS011;27576;53.366;-1.498;2023-02-22T17:06:41;3.20;;;2.75;;
41897;SDS011;27576;53.366;-1.498;2023-02-22T17:09:07;3.47;;;3.08;;
41897;SDS011;27576;53.366;-1.498;2023-02-22T17:11:33;3.10;;;2.70;;
41897;SDS011;27576;53.366;-1.498;2023-02-22T17:13:59;3.40;;;3.10;;
41897;SDS011;27576;53.366;-1.498;2023-02-22T17:16:25;4.57;;;3.75;;
41897;SDS011;27576;53.366;-1.498;2023-02-22T17:18:50;3.90;;;2.65;;
41897;SDS011;27576;53.366;-1.498;2023-02-22T17:21:15;2.33;;;2.13;;
41897;SDS011;27576;53.366;-1.498;2023-02-22T17:23:41;3.65;;;3.03;;
41897;SDS011;27576;53.366;-1.498;2023-02-22T17:26:10;5.13;;;3.50;;
41897;SDS011;27576;53.366;-1.498;2023-02-22T17:28:37;4.95;;;4.15;;
41897;SDS011;27576;53.366;-1.498;2023-02-22T17:31:03;5.38;;;3.42;;
41897;SDS011;27576;53.366;-1.498;2023-02-22T17:33:32;4.03;;;3.63;;
41897;SDS011;27576;53.366;-1.498;2023-02-22T17:35:59;5.00;;;3.95;;
41897;SDS011;27576;53.366;-1.498;2023-02-22T17:38:26;4.60;;;4.18;;
41897;SDS011;27576;53.366;-1.498;2023-02-22T17:40:54;5.25;;;4.15;;
41897;SDS011;27576;53.366;-1.498;2023-02-22T17:43:20;5.03;;;4.50;;
41897;SDS011;27576;53.366;-1.498;2023-02-22T17:45:46;5.28;;;3.70;;
41897;SDS011;27576;53.366;-1.498;2023-02-22T17:48:12;3.17;;;2.50;;
41897;SDS011;27576;53.366;-1.498;2023-02-22T17:50:40;2.70;;;2.42;;
41897;SDS011;27576;53.366;-1.498;2023-02-22T17:53:07;3.17;;;2.60;;
41897;SDS011;27576;53.366;-1.498;2023-02-22T17:55:35;3.13;;;2.67;;
41897;SDS011;27576;53.366;-1.498;2023-02-22T17:58:03;3.47;;;2.78;;
41897;SDS011;27576;53.366;-1.498;2023-02-22T18:00:29;3.95;;;3.45;;
41897;SDS011;27576;53.366;-1.498;2023-02-22T18:03:08;5.13;;;4.50;;
41897;SDS011;27576;53.366;-1.498;2023-02-22T18:05:43;4.90;;;4.10;;
41897;SDS011;27576;53.366;-1.498;2023-02-22T18:08:11;4.35;;;3.95;;
41897;SDS011;27576;53.366;-1.498;2023-02-22T18:10:38;4.22;;;3.83;;
41897;SDS011;27576;53.366;-1.498;2023-02-22T18:13:03;4.55;;;3.90;;